Packwood, Washington
Current Conditions -  °F | °C
As of 11:58 AM on Sunday 21 Dec 2014 (Local Time) from KTCM Reporting Station
Few Clouds Few Clouds  
Wind Chill: 53°   Ceiling: Unl
Heat Index: 53°   Visibility: 10mi
Dew Point: 51°   Wind: 13mph
Humidity: 91%   Direction: 210°SSW
Pressure: 29.98"   Gusts: NA
Location:  46.61°N, 121.67°W
Report Text: KTCM 211958Z AUTO 21011KT 10SM FEW031 12/11 A2998 RMK AO2 SLP156 T01190105
Loading
Personal Weather Stations






























Interactive Weather Map New forecast layout! Learn more

10-Day Weather Forecast

Advertisements
Track Severe Weather on mobile